SEH217 LGIR-LGAV
Flight info
| Callsign | SEH217 |
|---|---|
| Flight time | N/A |
| Altitude | 22000 |
| Route | EPALO UM749 MIL L617 SOREV |
| Aircraft | A321/M-S/C |
Departure
| Time | 2026-05-08 05:25 |
|---|---|
| Airport | Heraklion International Nikos Kazantzakis Airport (LGIR) |
Arrival
| Time | N/A |
|---|---|
| Airport | Athens Eleftherios Venizelos International Airport (LGAV) |
| Time | Latitude | Longitude | Altitude | Speed | Heading |
|---|---|---|---|---|---|
| 2026-05-08 05:09 | 35.33776 | 25.17314 | 130 ft | 0 kts | 276° |
| 2026-05-08 05:10 | 35.33828 | 25.17328 | 129 ft | 7 kts | 276° |
| 2026-05-08 05:10 | 35.33856 | 25.17306 | 130 ft | 0 kts | 313° |
| 2026-05-08 05:20 | 35.33863 | 25.17297 | 129 ft | 3 kts | 313° |
| 2026-05-08 05:20 | 35.33880 | 25.17275 | 129 ft | 4 kts | 313° |
| 2026-05-08 05:20 | 35.33897 | 25.17253 | 129 ft | 3 kts | 313° |
| 2026-05-08 05:21 | 35.33911 | 25.17235 | 129 ft | 3 kts | 313° |
| 2026-05-08 05:21 | 35.33922 | 25.17219 | 129 ft | 2 kts | 300° |
| 2026-05-08 05:21 | 35.33924 | 25.17203 | 129 ft | 2 kts | 274° |
| 2026-05-08 05:21 | 35.33925 | 25.17180 | 129 ft | 12 kts | 274° |
| 2026-05-08 05:22 | 35.33943 | 25.17003 | 129 ft | 22 kts | 277° |
| 2026-05-08 05:22 | 35.33960 | 25.16830 | 129 ft | 19 kts | 275° |
| 2026-05-08 05:22 | 35.34006 | 25.16685 | 129 ft | 18 kts | 308° |
| 2026-05-08 05:22 | 35.34071 | 25.16556 | 129 ft | 18 kts | 287° |
| 2026-05-08 05:23 | 35.34090 | 25.16412 | 129 ft | 17 kts | 276° |
| 2026-05-08 05:23 | 35.34101 | 25.16275 | 129 ft | 16 kts | 275° |
| 2026-05-08 05:23 | 35.34119 | 25.16167 | 129 ft | 10 kts | 294° |
| 2026-05-08 05:23 | 35.34106 | 25.16137 | 129 ft | 5 kts | 164° |
| 2026-05-08 05:24 | 35.34101 | 25.16169 | 129 ft | 5 kts | 79° |
| 2026-05-08 05:24 | 35.34099 | 25.16231 | 129 ft | 6 kts | 95° |
| 2026-05-08 05:24 | 35.34099 | 25.16236 | 129 ft | 0 kts | 95° |
| 2026-05-08 05:24 | 35.34086 | 25.16424 | 129 ft | 58 kts | 95° |
| 2026-05-08 05:25 | 35.34031 | 25.17212 | 130 ft | 126 kts | 96° |
| 2026-05-08 05:25 | 35.33946 | 25.18508 | 261 ft | 169 kts | 96° |
| 2026-05-08 05:25 | 35.33858 | 25.19993 | 969 ft | 180 kts | 96° |
| 2026-05-08 05:25 | 35.33768 | 25.21563 | 1781 ft | 189 kts | 95° |
| 2026-05-08 05:26 | 35.33818 | 25.23201 | 2574 ft | 198 kts | 79° |
| 2026-05-08 05:26 | 35.34513 | 25.24755 | 2777 ft | 225 kts | 49° |
| 2026-05-08 05:26 | 35.35928 | 25.25873 | 2851 ft | 261 kts | 20° |
| 2026-05-08 05:26 | 35.37748 | 25.26090 | 3569 ft | 265 kts | 353° |
| 2026-05-08 05:27 | 35.39487 | 25.25351 | 4401 ft | 268 kts | 331° |
| 2026-05-08 05:27 | 35.41100 | 25.24180 | 5257 ft | 270 kts | 328° |
| 2026-05-08 05:27 | 35.42716 | 25.22974 | 6030 ft | 274 kts | 328° |
| 2026-05-08 05:27 | 35.44344 | 25.21750 | 6830 ft | 275 kts | 327° |
| 2026-05-08 05:28 | 35.45983 | 25.20512 | 7603 ft | 277 kts | 327° |
| 2026-05-08 05:28 | 35.47610 | 25.19280 | 8353 ft | 279 kts | 327° |
| 2026-05-08 05:28 | 35.49268 | 25.18022 | 9046 ft | 282 kts | 327° |
| 2026-05-08 05:28 | 35.50938 | 25.16754 | 9753 ft | 282 kts | 327° |
| 2026-05-08 05:29 | 35.52612 | 25.15483 | 10426 ft | 285 kts | 327° |
| 2026-05-08 05:29 | 35.54363 | 25.14150 | 10554 ft | 308 kts | 327° |
| 2026-05-08 05:29 | 35.56249 | 25.12713 | 10636 ft | 329 kts | 327° |
| 2026-05-08 05:29 | 35.58257 | 25.11183 | 10752 ft | 348 kts | 327° |
| 2026-05-08 05:30 | 35.60316 | 25.09616 | 11422 ft | 347 kts | 327° |
| 2026-05-08 05:30 | 35.62369 | 25.08053 | 12060 ft | 348 kts | 327° |
| 2026-05-08 05:30 | 35.64433 | 25.06480 | 12647 ft | 350 kts | 326° |
| 2026-05-08 05:30 | 35.66506 | 25.04899 | 13193 ft | 352 kts | 326° |
| 2026-05-08 05:31 | 35.68598 | 25.03312 | 13740 ft | 354 kts | 327° |
| 2026-05-08 05:31 | 35.70763 | 25.01835 | 14316 ft | 355 kts | 330° |
| 2026-05-08 05:31 | 35.73003 | 25.00523 | 14852 ft | 358 kts | 334° |
| 2026-05-08 05:31 | 35.75287 | 24.99378 | 15373 ft | 360 kts | 336° |
| 2026-05-08 05:32 | 35.77654 | 24.98236 | 15870 ft | 363 kts | 336° |
| 2026-05-08 05:32 | 35.80014 | 24.97106 | 16391 ft | 364 kts | 336° |
| 2026-05-08 05:32 | 35.82352 | 24.95993 | 16870 ft | 366 kts | 336° |
| 2026-05-08 05:32 | 35.84740 | 24.94860 | 17354 ft | 368 kts | 336° |
| 2026-05-08 05:33 | 35.87124 | 24.93731 | 17847 ft | 370 kts | 336° |
| 2026-05-08 05:33 | 35.89541 | 24.92588 | 18333 ft | 371 kts | 336° |
| 2026-05-08 05:33 | 35.91956 | 24.91446 | 18790 ft | 373 kts | 336° |
| 2026-05-08 05:33 | 35.94378 | 24.90302 | 19246 ft | 375 kts | 336° |
| 2026-05-08 05:34 | 35.96827 | 24.89144 | 19688 ft | 376 kts | 335° |
| 2026-05-08 05:34 | 35.99279 | 24.87985 | 19991 ft | 380 kts | 335° |
| 2026-05-08 05:34 | 36.01760 | 24.86813 | 20080 ft | 380 kts | 335° |
| 2026-05-08 05:34 | 36.04236 | 24.85642 | 20104 ft | 382 kts | 335° |
| 2026-05-08 05:35 | 36.06715 | 24.84466 | 20110 ft | 382 kts | 335° |
| 2026-05-08 05:35 | 36.09201 | 24.83287 | 20111 ft | 381 kts | 335° |
| 2026-05-08 05:35 | 36.11646 | 24.82127 | 20112 ft | 381 kts | 335° |
| 2026-05-08 05:35 | 36.14123 | 24.80952 | 20112 ft | 381 kts | 335° |
| 2026-05-08 05:36 | 36.16596 | 24.79779 | 20112 ft | 381 kts | 335° |
| 2026-05-08 05:36 | 36.19067 | 24.78606 | 20112 ft | 381 kts | 335° |
| 2026-05-08 05:36 | 36.21540 | 24.77431 | 20112 ft | 381 kts | 335° |
| 2026-05-08 05:36 | 36.24018 | 24.76254 | 20112 ft | 381 kts | 335° |
| 2026-05-08 05:37 | 36.26488 | 24.75080 | 20112 ft | 381 kts | 335° |
| 2026-05-08 05:37 | 36.28963 | 24.73903 | 20112 ft | 381 kts | 335° |
| 2026-05-08 05:37 | 36.31437 | 24.72725 | 20113 ft | 381 kts | 335° |
| 2026-05-08 05:37 | 36.33905 | 24.71550 | 20113 ft | 381 kts | 335° |
| 2026-05-08 05:38 | 36.36380 | 24.70371 | 20113 ft | 380 kts | 335° |
| 2026-05-08 05:38 | 36.38847 | 24.69195 | 20113 ft | 380 kts | 335° |
| 2026-05-08 05:38 | 36.41316 | 24.68016 | 20113 ft | 380 kts | 335° |
| 2026-05-08 05:38 | 36.43780 | 24.66840 | 20113 ft | 380 kts | 335° |
| 2026-05-08 05:39 | 36.46250 | 24.65659 | 20113 ft | 380 kts | 335° |
| 2026-05-08 05:39 | 36.48691 | 24.64493 | 20113 ft | 380 kts | 335° |
| 2026-05-08 05:39 | 36.51155 | 24.63314 | 20113 ft | 380 kts | 335° |
| 2026-05-08 05:39 | 36.53624 | 24.62132 | 20113 ft | 380 kts | 335° |
| 2026-05-08 05:40 | 36.56095 | 24.60948 | 20114 ft | 380 kts | 335° |
| 2026-05-08 05:40 | 36.58561 | 24.59766 | 20113 ft | 380 kts | 335° |
| 2026-05-08 05:40 | 36.61035 | 24.58578 | 20113 ft | 381 kts | 335° |
| 2026-05-08 05:40 | 36.63514 | 24.57388 | 20112 ft | 381 kts | 335° |
| 2026-05-08 05:41 | 36.65989 | 24.56200 | 20113 ft | 381 kts | 335° |
| 2026-05-08 05:41 | 36.68463 | 24.55010 | 20113 ft | 381 kts | 335° |
| 2026-05-08 05:41 | 36.70942 | 24.53818 | 20113 ft | 381 kts | 335° |
| 2026-05-08 05:41 | 36.73418 | 24.52626 | 20113 ft | 382 kts | 335° |
| 2026-05-08 05:42 | 36.75949 | 24.51571 | 20113 ft | 385 kts | 341° |
| 2026-05-08 05:42 | 36.78565 | 24.50816 | 20115 ft | 386 kts | 343° |
| 2026-05-08 05:42 | 36.81155 | 24.50101 | 20115 ft | 386 kts | 343° |
| 2026-05-08 05:42 | 36.83776 | 24.49387 | 20112 ft | 382 kts | 343° |
| 2026-05-08 05:43 | 36.86322 | 24.48701 | 20111 ft | 366 kts | 343° |
| 2026-05-08 05:43 | 36.88767 | 24.48044 | 20111 ft | 353 kts | 343° |
| 2026-05-08 05:43 | 36.91155 | 24.47402 | 20089 ft | 350 kts | 343° |
| 2026-05-08 05:43 | 36.93524 | 24.46766 | 19668 ft | 348 kts | 343° |
| 2026-05-08 05:44 | 36.95899 | 24.46130 | 19203 ft | 349 kts | 343° |
| 2026-05-08 05:44 | 36.98268 | 24.45498 | 18811 ft | 347 kts | 343° |
| 2026-05-08 05:44 | 37.00624 | 24.44869 | 18378 ft | 346 kts | 343° |
| 2026-05-08 05:44 | 37.02958 | 24.44248 | 17990 ft | 344 kts | 343° |
| 2026-05-08 05:45 | 37.05317 | 24.43620 | 17601 ft | 343 kts | 343° |
| 2026-05-08 05:45 | 37.07647 | 24.42998 | 17176 ft | 343 kts | 343° |
| 2026-05-08 05:45 | 37.09973 | 24.42375 | 16831 ft | 340 kts | 343° |
| 2026-05-08 05:45 | 37.12281 | 24.41747 | 16463 ft | 339 kts | 343° |
| 2026-05-08 05:46 | 37.14552 | 24.41129 | 16094 ft | 337 kts | 343° |
| 2026-05-08 05:46 | 37.16848 | 24.40504 | 15731 ft | 336 kts | 343° |
| 2026-05-08 05:46 | 37.19128 | 24.39884 | 15391 ft | 334 kts | 343° |
| 2026-05-08 05:46 | 37.21401 | 24.39265 | 15008 ft | 333 kts | 343° |
| 2026-05-08 05:47 | 37.23660 | 24.38650 | 14658 ft | 332 kts | 343° |
| 2026-05-08 05:47 | 37.25910 | 24.38037 | 14313 ft | 330 kts | 343° |
| 2026-05-08 05:47 | 37.28133 | 24.37432 | 14157 ft | 322 kts | 343° |
| 2026-05-08 05:47 | 37.30291 | 24.36844 | 14079 ft | 312 kts | 343° |
| 2026-05-08 05:48 | 37.32384 | 24.36275 | 14001 ft | 303 kts | 343° |
| 2026-05-08 05:48 | 37.34394 | 24.35726 | 13879 ft | 296 kts | 343° |
| 2026-05-08 05:48 | 37.36406 | 24.35175 | 13542 ft | 297 kts | 343° |
| 2026-05-08 05:48 | 37.38415 | 24.34624 | 13263 ft | 295 kts | 343° |
| 2026-05-08 05:49 | 37.40422 | 24.34074 | 12948 ft | 294 kts | 343° |
| 2026-05-08 05:49 | 37.42455 | 24.33515 | 12210 ft | 307 kts | 343° |
| 2026-05-08 05:49 | 37.44573 | 24.32932 | 11665 ft | 313 kts | 343° |
| 2026-05-08 05:49 | 37.46696 | 24.32351 | 11256 ft | 312 kts | 344° |
| 2026-05-08 05:50 | 37.48829 | 24.31766 | 10780 ft | 314 kts | 344° |
| 2026-05-08 05:50 | 37.50964 | 24.31179 | 10337 ft | 315 kts | 345° |
| 2026-05-08 05:50 | 37.53111 | 24.30589 | 9855 ft | 316 kts | 345° |
| 2026-05-08 05:50 | 37.55261 | 24.29995 | 9359 ft | 317 kts | 345° |
| 2026-05-08 05:51 | 37.57399 | 24.29307 | 8857 ft | 318 kts | 343° |
| 2026-05-08 05:51 | 37.59540 | 24.28596 | 8440 ft | 316 kts | 343° |
| 2026-05-08 05:51 | 37.61658 | 24.27894 | 7969 ft | 315 kts | 343° |
| 2026-05-08 05:51 | 37.63741 | 24.27201 | 7521 ft | 312 kts | 343° |
| 2026-05-08 05:52 | 37.65840 | 24.26503 | 7053 ft | 311 kts | 343° |
| 2026-05-08 05:52 | 37.67668 | 24.25894 | 7001 ft | 308 kts | 343° |
| 2026-05-08 05:52 | 37.68153 | 24.25733 | 7008 ft | 311 kts | 343° |